createdAt,value
2019-03-18T00:01:37.922Z,3.20
2019-03-18T00:04:16.461Z,1.73
2019-03-18T00:06:54.113Z,1.97
2019-03-18T00:09:26.887Z,3.37
2019-03-18T00:12:04.244Z,4.10
2019-03-18T00:14:45.305Z,2.30
2019-03-18T00:17:25.055Z,1.50
2019-03-18T00:19:56.476Z,4.13
2019-03-18T00:22:29.527Z,3.60
2019-03-18T00:25:03.331Z,2.13
2019-03-18T00:27:35.182Z,3.27
2019-03-18T00:30:08.895Z,2.37
2019-03-18T00:32:40.444Z,2.97
2019-03-18T00:35:12.322Z,3.53
2019-03-18T00:37:43.584Z,4.33
2019-03-18T00:40:15.361Z,3.87
2019-03-18T00:42:46.653Z,2.13
2019-03-18T00:45:18.459Z,3.70
2019-03-18T00:47:51.181Z,3.30
2019-03-18T00:50:22.606Z,2.77
2019-03-18T00:52:53.760Z,3.73
2019-03-18T00:55:24.920Z,2.33
2019-03-18T00:57:56.171Z,2.27
2019-03-18T01:00:28.785Z,3.33
2019-03-18T01:03:00.192Z,4.30
2019-03-18T01:05:32.475Z,2.33
2019-03-18T01:08:04.126Z,4.40
2019-03-18T01:10:35.298Z,3.53
2019-03-18T01:13:06.589Z,3.43
2019-03-18T01:15:37.773Z,5.50
2019-03-18T01:18:08.942Z,1.30
2019-03-18T01:20:40.263Z,2.73
2019-03-18T01:23:11.511Z,3.10
2019-03-18T01:25:43.457Z,2.17
2019-03-18T01:28:16.373Z,2.60
2019-03-18T01:30:47.848Z,3.63
2019-03-18T01:33:19.039Z,3.80
2019-03-18T01:35:50.472Z,2.03
2019-03-18T01:38:21.761Z,3.00
2019-03-18T01:40:52.909Z,2.20
2019-03-18T01:43:24.132Z,3.77
2019-03-18T01:45:55.445Z,4.50
2019-03-18T01:48:26.710Z,3.60
2019-03-18T01:50:57.917Z,2.67
2019-03-18T01:53:29.087Z,1.47
2019-03-18T01:56:00.514Z,1.60
2019-03-18T01:58:31.773Z,2.33
2019-03-18T02:01:03.069Z,1.67
2019-03-18T02:03:34.655Z,5.40
2019-03-18T02:06:06.285Z,3.77
2019-03-18T02:08:37.879Z,1.27
2019-03-18T02:11:09.036Z,2.63
2019-03-18T02:13:40.270Z,1.93
2019-03-18T02:16:12.279Z,2.10
2019-03-18T02:18:43.522Z,3.70
2019-03-18T02:21:14.852Z,2.67
2019-03-18T02:23:46.109Z,5.23
2019-03-18T02:26:17.335Z,1.50
2019-03-18T02:28:48.779Z,3.43
2019-03-18T02:31:20.273Z,4.53
2019-03-18T02:33:51.498Z,3.70
2019-03-18T02:36:22.754Z,3.33
2019-03-18T02:38:54.323Z,2.17
2019-03-18T02:41:25.475Z,3.40
2019-03-18T02:43:56.742Z,2.17
2019-03-18T02:46:28.393Z,4.33
2019-03-18T02:49:00.693Z,2.80
2019-03-18T02:51:32.225Z,2.43
2019-03-18T02:54:03.528Z,4.27
2019-03-18T02:56:35.844Z,2.90
2019-03-18T02:59:07.139Z,3.23
2019-03-18T03:01:38.426Z,3.63
2019-03-18T03:04:09.951Z,2.30
2019-03-18T03:06:41.419Z,1.70
2019-03-18T03:09:12.770Z,1.27
2019-03-18T03:11:43.916Z,2.37
2019-03-18T03:14:15.554Z,1.50
2019-03-18T03:16:47.101Z,2.77
2019-03-18T03:19:18.471Z,2.43
2019-03-18T03:21:49.702Z,2.87
2019-03-18T03:24:21.356Z,1.10
2019-03-18T03:26:52.705Z,1.67
2019-03-18T03:29:25.703Z,1.70
2019-03-18T03:31:57.443Z,1.17
2019-03-18T03:34:29.011Z,1.60
2019-03-18T03:37:00.209Z,1.67
2019-03-18T03:39:32.903Z,2.37
2019-03-18T03:42:04.565Z,2.37
2019-03-18T03:44:35.868Z,1.27
2019-03-18T03:47:07.441Z,1.63
2019-03-18T03:49:38.808Z,1.37
2019-03-18T03:52:10.124Z,1.80
2019-03-18T03:54:42.076Z,2.47
2019-03-18T03:57:13.447Z,1.83
2019-03-18T03:59:44.783Z,2.10
2019-03-18T04:02:16.372Z,1.70
2019-03-18T04:04:47.808Z,3.63
2019-03-18T04:07:19.191Z,2.27
2019-03-18T04:09:51.756Z,2.83
2019-03-18T04:12:23.902Z,3.03
2019-03-18T04:14:55.209Z,1.93
2019-03-18T04:17:26.595Z,2.07
2019-03-18T04:19:58.172Z,3.43
2019-03-18T04:22:29.693Z,2.47
2019-03-18T04:25:01.047Z,1.70
2019-03-18T04:27:32.282Z,3.60
2019-03-18T04:30:03.907Z,3.73
2019-03-18T04:32:35.227Z,2.33
2019-03-18T04:35:06.999Z,4.00
2019-03-18T04:37:38.716Z,3.27
2019-03-18T04:40:10.355Z,2.30
2019-03-18T04:42:41.690Z,5.63
2019-03-18T04:45:13.127Z,4.33
2019-03-18T04:47:44.501Z,7.40
2019-03-18T04:50:15.994Z,4.47
2019-03-18T04:52:47.571Z,3.17
2019-03-18T04:55:19.130Z,4.57
2019-03-18T04:57:50.546Z,4.20
2019-03-18T05:00:21.913Z,6.00
2019-03-18T05:02:53.748Z,4.13
2019-03-18T05:05:26.099Z,4.47
2019-03-18T05:07:57.845Z,4.27
2019-03-18T05:10:29.192Z,4.33
2019-03-18T05:13:00.655Z,3.30
2019-03-18T05:15:31.931Z,3.07
2019-03-18T05:18:03.267Z,2.37
2019-03-18T05:20:34.653Z,3.63
2019-03-18T05:23:05.949Z,1.97
2019-03-18T05:25:37.764Z,2.57
2019-03-18T05:28:09.713Z,4.67
2019-03-18T05:30:41.167Z,7.33
2019-03-18T05:33:12.500Z,6.73
2019-03-18T05:35:43.806Z,5.00
2019-03-18T05:38:16.715Z,5.30
2019-03-18T05:40:48.032Z,3.47
2019-03-18T05:43:19.356Z,2.20
2019-03-18T05:45:50.784Z,4.30
2019-03-18T05:48:22.121Z,4.43
2019-03-18T05:50:53.460Z,3.77
2019-03-18T05:53:24.895Z,5.83
2019-03-18T05:55:56.506Z,4.57
2019-03-18T05:58:27.858Z,7.87
2019-03-18T06:00:59.101Z,4.67
2019-03-18T06:03:30.331Z,4.80
2019-03-18T06:06:01.815Z,4.23
2019-03-18T06:08:33.071Z,6.00
2019-03-18T06:11:04.404Z,4.53
2019-03-18T06:13:35.722Z,3.23
2019-03-18T06:16:07.066Z,3.73
2019-03-18T06:18:38.683Z,4.10
2019-03-18T06:21:10.024Z,2.73
2019-03-18T06:23:41.227Z,3.13
2019-03-18T06:26:12.495Z,4.23
2019-03-18T06:28:43.858Z,4.70
2019-03-18T06:31:15.176Z,4.80
2019-03-18T06:33:46.364Z,7.10
2019-03-18T06:36:17.922Z,70.97
2019-03-18T06:38:49.496Z,72.93
2019-03-18T06:41:20.958Z,43.10
2019-03-18T06:43:52.268Z,37.37
2019-03-18T06:46:23.600Z,31.50
2019-03-18T06:48:54.776Z,30.93
2019-03-18T06:51:26.039Z,13.50
2019-03-18T06:53:57.457Z,12.83
2019-03-18T06:56:28.833Z,11.93
2019-03-18T06:58:59.993Z,12.67
2019-03-18T07:01:31.335Z,14.97
2019-03-18T07:04:02.853Z,9.07
2019-03-18T07:06:34.116Z,8.90
2019-03-18T07:09:10.759Z,13.53
2019-03-18T07:11:41.934Z,10.57
2019-03-18T07:14:13.290Z,9.63
2019-03-18T07:16:44.669Z,6.73
2019-03-18T07:19:16.169Z,8.20
2019-03-18T07:21:47.584Z,8.17
2019-03-18T07:24:19.223Z,9.17
2019-03-18T07:26:50.899Z,6.43
2019-03-18T07:29:22.324Z,6.27
2019-03-18T07:31:53.678Z,9.20
2019-03-18T07:34:24.955Z,11.87
2019-03-18T07:36:56.387Z,8.87
2019-03-18T07:39:28.555Z,10.03
2019-03-18T07:42:00.313Z,7.70
2019-03-18T07:44:32.165Z,9.63
2019-03-18T07:47:03.436Z,7.90
2019-03-18T07:49:35.370Z,7.93
2019-03-18T07:52:06.774Z,9.13
2019-03-18T07:54:39.041Z,8.47
2019-03-18T07:57:10.797Z,7.00
2019-03-18T07:59:42.063Z,5.67
2019-03-18T08:02:13.195Z,6.03
2019-03-18T08:04:44.537Z,5.63
2019-03-18T08:07:16.229Z,6.50
2019-03-18T08:09:47.820Z,6.07
2019-03-18T08:12:19.166Z,7.23
2019-03-18T08:14:50.343Z,6.40
2019-03-18T08:17:22.013Z,5.33
2019-03-18T08:19:53.245Z,6.77
2019-03-18T08:22:24.591Z,4.37
2019-03-18T08:24:57.329Z,4.67
2019-03-18T08:27:28.661Z,5.23
2019-03-18T08:30:00.372Z,5.80
2019-03-18T08:32:31.973Z,7.90
2019-03-18T08:35:03.669Z,7.83
2019-03-18T08:37:35.747Z,6.47
2019-03-18T08:40:07.913Z,5.07
2019-03-18T08:42:40.188Z,4.63
2019-03-18T08:45:11.623Z,4.77
2019-03-18T08:47:43.974Z,4.73
2019-03-18T08:50:15.368Z,3.57
2019-03-18T08:52:46.807Z,4.53
2019-03-18T08:55:18.253Z,2.50
2019-03-18T08:57:49.424Z,4.90
2019-03-18T09:00:21.151Z,4.00
2019-03-18T09:02:52.767Z,3.00
2019-03-18T09:05:23.998Z,5.33
2019-03-18T09:07:55.532Z,3.57
2019-03-18T09:10:27.039Z,2.67
2019-03-18T09:12:58.266Z,5.47
2019-03-18T09:15:29.593Z,3.90
2019-03-18T09:18:01.003Z,2.30
2019-03-18T09:20:33.112Z,2.80
2019-03-18T09:23:04.686Z,6.20
2019-03-18T09:25:35.903Z,3.30
2019-03-18T09:28:07.851Z,5.40
2019-03-18T09:30:39.326Z,3.10
2019-03-18T09:33:10.870Z,2.27
2019-03-18T09:35:42.092Z,2.30
2019-03-18T09:38:13.339Z,2.73
2019-03-18T09:40:44.996Z,2.37
2019-03-18T09:43:16.317Z,2.87
2019-03-18T09:45:47.530Z,3.63
2019-03-18T09:48:19.136Z,2.10
2019-03-18T09:50:50.358Z,4.23
2019-03-18T09:53:21.924Z,2.00
2019-03-18T09:55:53.219Z,7.70
2019-03-18T09:58:24.872Z,4.07
2019-03-18T10:00:56.077Z,2.57
2019-03-18T10:03:27.849Z,1.57
2019-03-18T10:05:58.993Z,2.23
2019-03-18T10:08:30.683Z,2.40
2019-03-18T10:11:02.571Z,1.10
2019-03-18T10:13:33.820Z,3.23
2019-03-18T10:16:06.287Z,1.83
2019-03-18T10:18:37.510Z,2.57
2019-03-18T10:21:08.810Z,1.43
2019-03-18T10:23:40.069Z,1.97
2019-03-18T10:26:11.395Z,1.40
2019-03-18T10:28:42.629Z,2.43
2019-03-18T10:31:13.871Z,2.37
2019-03-18T10:33:45.105Z,2.63
2019-03-18T10:36:17.237Z,2.80
2019-03-18T10:38:48.436Z,2.53
2019-03-18T10:41:19.679Z,1.83
2019-03-18T10:43:51.214Z,1.77
2019-03-18T10:46:26.072Z,1.53
2019-03-18T10:48:56.513Z,3.63
2019-03-18T10:51:27.898Z,3.67
2019-03-18T10:53:59.188Z,1.57
2019-03-18T10:56:30.498Z,2.40
2019-03-18T10:59:01.726Z,1.90
2019-03-18T11:01:33.024Z,2.30
2019-03-18T11:04:04.253Z,2.40
2019-03-18T11:06:35.765Z,2.27
2019-03-18T11:09:09.272Z,4.87
2019-03-18T11:11:40.848Z,2.93
2019-03-18T11:14:12.245Z,5.37
2019-03-18T11:16:43.556Z,3.13
2019-03-18T11:19:16.757Z,2.97
2019-03-18T11:21:48.001Z,2.07
2019-03-18T11:24:19.553Z,1.97
2019-03-18T11:26:51.568Z,2.97
2019-03-18T11:29:22.706Z,3.37
2019-03-18T11:31:54.294Z,1.67
2019-03-18T11:34:25.765Z,2.23
2019-03-18T11:36:56.984Z,1.37
2019-03-18T11:39:36.924Z,4.40
2019-03-18T11:42:08.579Z,2.63
2019-03-18T11:44:41.387Z,4.40
2019-03-18T11:47:12.925Z,1.90
2019-03-18T11:49:44.527Z,2.67
2019-03-18T11:52:16.329Z,2.70
2019-03-18T11:54:47.909Z,1.40
2019-03-18T11:57:19.321Z,2.60
2019-03-18T11:59:50.460Z,1.43
2019-03-18T12:02:27.666Z,4.73
2019-03-18T12:04:57.537Z,3.17
2019-03-18T12:07:28.377Z,2.80
2019-03-18T12:09:59.912Z,2.07
2019-03-18T12:12:31.242Z,4.60
2019-03-18T12:15:02.545Z,2.50
2019-03-18T12:17:34.866Z,2.27
2019-03-18T12:20:06.771Z,5.37
2019-03-18T12:22:38.410Z,3.37
2019-03-18T12:25:11.510Z,3.10
2019-03-18T12:27:43.153Z,2.90
2019-03-18T12:30:17.890Z,2.40
2019-03-18T12:32:49.177Z,1.53
2019-03-18T12:35:21.656Z,3.67
2019-03-18T12:37:53.014Z,1.90
2019-03-18T12:40:25.230Z,3.20
2019-03-18T12:42:56.527Z,2.77
2019-03-18T12:45:27.827Z,1.73
2019-03-18T12:47:59.129Z,2.23
2019-03-18T12:50:49.090Z,1.50
2019-03-18T12:53:03.733Z,3.10
2019-03-18T12:55:35.054Z,1.63
2019-03-18T12:58:06.560Z,2.00
2019-03-18T13:00:37.961Z,2.20
2019-03-18T13:03:09.274Z,1.97
2019-03-18T13:05:46.333Z,4.43
2019-03-18T13:08:17.749Z,1.70
2019-03-18T13:10:49.062Z,1.67
2019-03-18T13:13:20.652Z,1.53
2019-03-18T13:15:52.225Z,2.53
2019-03-18T13:18:23.408Z,3.03
2019-03-18T13:21:07.417Z,2.67
2019-03-18T13:23:28.710Z,3.13
2019-03-18T13:25:59.873Z,1.73
2019-03-18T13:28:31.060Z,5.07
2019-03-18T13:31:02.313Z,2.50
2019-03-18T13:33:33.632Z,3.50
2019-03-18T13:36:05.126Z,2.90
2019-03-18T13:38:36.570Z,1.67
2019-03-18T13:41:08.308Z,3.37
2019-03-18T13:43:39.571Z,2.40
2019-03-18T13:46:10.816Z,6.50
2019-03-18T13:48:42.257Z,2.47
2019-03-18T13:51:20.955Z,3.83
2019-03-18T13:53:47.040Z,2.70
2019-03-18T13:56:18.291Z,2.93
2019-03-18T13:58:49.560Z,2.63
2019-03-18T14:01:20.952Z,3.57
2019-03-18T14:03:52.390Z,4.73
2019-03-18T14:06:23.725Z,3.13
2019-03-18T14:08:55.030Z,2.07
2019-03-18T14:11:27.106Z,2.40
2019-03-18T14:13:58.452Z,1.87
2019-03-18T14:16:30.209Z,2.30
2019-03-18T14:19:01.494Z,2.47
2019-03-18T14:21:33.793Z,4.70
2019-03-18T14:24:05.106Z,2.47
2019-03-18T14:26:36.685Z,2.97
2019-03-18T14:29:07.936Z,2.80
2019-03-18T14:31:39.494Z,3.60
2019-03-18T14:34:10.668Z,3.60
2019-03-18T14:36:41.825Z,1.93
2019-03-18T14:39:13.008Z,1.20
2019-03-18T14:41:44.252Z,3.93
2019-03-18T14:44:16.084Z,2.20
2019-03-18T14:46:47.303Z,2.93
2019-03-18T14:49:18.665Z,1.60
2019-03-18T14:51:50.279Z,2.30
2019-03-18T14:54:21.531Z,1.23
2019-03-18T14:56:52.818Z,1.70
2019-03-18T14:59:24.069Z,1.97
2019-03-18T15:01:55.632Z,2.47
2019-03-18T15:04:27.296Z,2.10
2019-03-18T15:06:59.149Z,1.83
2019-03-18T15:09:30.393Z,2.03
2019-03-18T15:12:01.741Z,2.10
2019-03-18T15:14:33.399Z,1.80
2019-03-18T15:17:04.807Z,2.50
2019-03-18T15:19:36.138Z,1.17
2019-03-18T15:22:07.479Z,2.53
2019-03-18T15:24:39.175Z,2.97
2019-03-18T15:27:10.466Z,1.63
2019-03-18T15:29:42.013Z,2.30
2019-03-18T15:32:13.319Z,6.10
2019-03-18T15:34:44.592Z,2.10
2019-03-18T15:37:16.419Z,3.90
2019-03-18T15:39:47.844Z,1.50
2019-03-18T15:42:19.136Z,2.63
2019-03-18T15:44:50.379Z,1.83
2019-03-18T15:47:21.673Z,1.47
2019-03-18T15:49:53.001Z,2.33
2019-03-18T15:52:24.807Z,2.27
2019-03-18T15:54:55.995Z,3.23
2019-03-18T15:57:29.963Z,1.70
2019-03-18T16:00:00.607Z,3.40
2019-03-18T16:02:31.962Z,4.70
2019-03-18T16:05:03.292Z,3.80
2019-03-18T16:07:34.841Z,2.40
2019-03-18T16:10:06.853Z,4.27
2019-03-18T16:12:38.101Z,3.07
2019-03-18T16:15:10.296Z,2.07
2019-03-18T16:17:41.901Z,2.47
2019-03-18T16:20:14.635Z,2.77
2019-03-18T16:22:45.936Z,3.30
2019-03-18T16:25:17.374Z,2.10
2019-03-18T16:27:48.852Z,2.83
2019-03-18T16:30:20.565Z,4.13
2019-03-18T16:32:52.327Z,2.40
2019-03-18T16:35:23.574Z,3.67
2019-03-18T16:37:54.823Z,6.87
2019-03-18T16:40:26.268Z,2.50
2019-03-18T16:42:57.558Z,4.30
2019-03-18T16:45:28.789Z,5.87
2019-03-18T16:48:00.149Z,4.63
2019-03-18T16:50:31.624Z,4.23
2019-03-18T16:53:03.506Z,6.87
2019-03-18T16:55:35.036Z,6.50
2019-03-18T16:58:06.337Z,5.33
2019-03-18T17:00:37.590Z,7.77
2019-03-18T17:03:08.986Z,3.73
2019-03-18T17:05:40.391Z,7.23
2019-03-18T17:08:11.708Z,12.20
2019-03-18T17:10:43.313Z,12.67
2019-03-18T17:13:14.755Z,8.57
2019-03-18T17:15:45.921Z,3.63
2019-03-18T17:18:18.097Z,6.47
2019-03-18T17:20:49.477Z,5.73
2019-03-18T17:23:20.775Z,9.43
2019-03-18T17:25:52.119Z,7.23
2019-03-18T17:28:23.618Z,8.90
2019-03-18T17:30:55.285Z,9.77
2019-03-18T17:33:26.542Z,9.90
2019-03-18T17:35:58.188Z,11.27
2019-03-18T17:38:29.446Z,11.90
2019-03-18T17:41:01.236Z,10.57
2019-03-18T17:43:32.571Z,10.70
2019-03-18T17:46:03.961Z,17.17
2019-03-18T17:48:35.404Z,69.93
2019-03-18T17:51:06.740Z,56.30
2019-03-18T17:53:38.290Z,23.23
2019-03-18T17:56:09.962Z,23.67
2019-03-18T17:58:41.230Z,15.63
2019-03-18T18:01:13.016Z,24.13
2019-03-18T18:03:44.253Z,12.90
2019-03-18T18:06:15.534Z,11.80
2019-03-18T18:08:46.968Z,11.67
2019-03-18T18:11:18.156Z,8.23
2019-03-18T18:13:49.529Z,13.57
2019-03-18T18:16:21.396Z,18.47
2019-03-18T18:18:52.778Z,17.47
2019-03-18T18:21:23.981Z,11.13
2019-03-18T18:23:55.177Z,8.77
2019-03-18T18:26:26.359Z,5.13
2019-03-18T18:28:57.517Z,7.33
2019-03-18T18:31:29.359Z,10.53
2019-03-18T18:34:00.975Z,5.60
2019-03-18T18:36:32.213Z,4.40
2019-03-18T18:39:04.113Z,3.80
2019-03-18T18:41:35.792Z,7.07
2019-03-18T18:44:07.041Z,5.83
2019-03-18T18:46:39.275Z,9.33
2019-03-18T18:49:10.989Z,8.13
2019-03-18T18:51:42.295Z,8.57
2019-03-18T18:54:13.584Z,3.60
2019-03-18T18:56:44.785Z,2.67
2019-03-18T18:59:16.014Z,4.33
2019-03-18T19:01:47.253Z,3.73
2019-03-18T19:04:18.497Z,7.63
2019-03-18T19:06:49.754Z,9.37
2019-03-18T19:09:20.896Z,7.97
2019-03-18T19:11:52.167Z,6.30
2019-03-18T19:14:23.779Z,15.13
2019-03-18T19:16:54.973Z,10.50
2019-03-18T19:19:26.131Z,11.77
2019-03-18T19:21:57.891Z,13.13
2019-03-18T19:24:29.106Z,10.80
2019-03-18T19:27:00.459Z,15.63
2019-03-18T19:29:31.693Z,4.93
2019-03-18T19:32:03.258Z,6.90
2019-03-18T19:34:34.876Z,2.53
2019-03-18T19:37:08.723Z,5.73
2019-03-18T19:39:40.613Z,4.50
2019-03-18T19:42:16.615Z,6.33
2019-03-18T19:44:51.705Z,6.90
2019-03-18T19:47:23.096Z,6.40
2019-03-18T19:49:54.313Z,10.50
2019-03-18T19:52:25.792Z,11.33
2019-03-18T19:54:57.205Z,10.70
2019-03-18T19:57:30.289Z,11.37
2019-03-18T20:00:05.249Z,11.87
2019-03-18T20:02:49.696Z,11.17
2019-03-18T20:05:43.498Z,9.67
2019-03-18T20:08:23.768Z,4.70
2019-03-18T20:11:18.922Z,5.17
2019-03-18T20:14:17.198Z,7.07
2019-03-18T20:17:13.537Z,6.90
2019-03-18T20:20:14.889Z,5.67
2019-03-18T20:25:55.108Z,4.80
2019-03-18T20:28:32.046Z,3.10
2019-03-18T20:31:25.324Z,8.20
2019-03-18T20:33:59.959Z,8.37
2019-03-18T20:36:40.475Z,7.97
2019-03-18T20:39:12.152Z,7.87
2019-03-18T20:41:44.137Z,7.20
2019-03-18T20:44:33.870Z,7.33
2019-03-18T20:47:14.297Z,3.33
2019-03-18T20:49:45.808Z,3.33
2019-03-18T20:52:48.738Z,4.93
2019-03-18T20:55:12.075Z,8.03
2019-03-18T20:57:54.570Z,4.73
2019-03-18T21:01:17.270Z,2.73
2019-03-18T21:04:01.224Z,4.13
2019-03-18T21:06:36.291Z,5.77
2019-03-18T21:09:13.024Z,6.03
2019-03-18T21:11:46.058Z,4.83
2019-03-18T21:14:27.707Z,4.47
2019-03-18T21:16:59.065Z,5.70
2019-03-18T21:19:30.887Z,3.80
2019-03-18T21:22:03.416Z,4.40
2019-03-18T21:24:35.361Z,5.10
2019-03-18T21:27:06.895Z,3.20
2019-03-18T21:29:38.313Z,4.93
2019-03-18T21:32:10.972Z,6.67
2019-03-18T21:34:42.424Z,4.57
2019-03-18T21:37:13.958Z,4.73
2019-03-18T21:39:45.758Z,4.43
2019-03-18T21:42:17.232Z,5.67
2019-03-18T21:44:48.670Z,7.93
2019-03-18T21:47:20.163Z,8.17
2019-03-18T21:49:51.764Z,9.17
2019-03-18T21:52:23.452Z,8.63
2019-03-18T21:54:54.964Z,9.43
2019-03-18T21:57:26.361Z,8.63
2019-03-18T21:59:57.765Z,9.17
2019-03-18T22:02:29.283Z,10.53
2019-03-18T22:05:00.622Z,10.50
2019-03-18T22:07:32.050Z,11.50
2019-03-18T22:10:03.409Z,9.03
2019-03-18T22:12:35.261Z,12.70
2019-03-18T22:15:08.536Z,12.10
2019-03-18T22:17:39.966Z,8.43
2019-03-18T22:20:14.064Z,7.93
2019-03-18T22:22:45.885Z,7.87
2019-03-18T22:25:17.394Z,7.70
2019-03-18T22:27:48.884Z,7.43
2019-03-18T22:30:20.754Z,10.13
2019-03-18T22:32:52.123Z,10.77
2019-03-18T22:35:23.571Z,10.50
2019-03-18T22:37:55.006Z,13.93
2019-03-18T22:40:27.164Z,8.93
2019-03-18T22:42:58.524Z,10.13
2019-03-18T22:45:30.001Z,9.83
2019-03-18T22:48:01.644Z,12.43
2019-03-18T22:50:33.199Z,10.23
2019-03-18T22:53:04.795Z,7.60
2019-03-18T22:55:36.182Z,9.07
2019-03-18T22:58:07.633Z,7.50
2019-03-18T23:00:46.271Z,9.33
2019-03-18T23:03:18.219Z,7.47
2019-03-18T23:05:50.043Z,8.53
2019-03-18T23:08:21.769Z,10.37
2019-03-18T23:10:53.150Z,10.33
2019-03-18T23:13:24.433Z,9.63
2019-03-18T23:15:55.797Z,9.83
2019-03-18T23:18:27.487Z,8.80
2019-03-18T23:20:58.936Z,9.57
2019-03-18T23:23:30.294Z,8.40
2019-03-18T23:26:02.146Z,7.20
2019-03-18T23:28:34.039Z,8.30
2019-03-18T23:31:05.472Z,10.57
2019-03-18T23:33:36.752Z,7.30
2019-03-18T23:36:08.370Z,10.13
2019-03-18T23:38:39.732Z,7.17
2019-03-18T23:41:11.108Z,7.40
2019-03-18T23:43:42.489Z,7.77
2019-03-18T23:46:14.277Z,8.37
2019-03-18T23:48:45.702Z,9.07
2019-03-18T23:51:17.465Z,7.40
2019-03-18T23:53:48.925Z,8.27
2019-03-18T23:56:20.405Z,9.40
2019-03-18T23:58:51.810Z,8.47
